Time;durP1;ratioP1;P1;durP2;ratioP2;P2;SDS_P1;SDS_P2;PMS_P1;PMS_P2;Temp;Humidity;BMP_temperature;BMP_pressure;BME280_temperature;BME280_humidity;BME280_pressure;Samples;Min_cycle;Max_cycle;Signal;HPM_P1;HPM_P2
2022/11/17 00:38:42;;;;;;;3.73;2.63;;;3.40;90.10;;;;;;4758470;29;20412;-84
2022/11/17 00:43:03;;;;;;;4.10;3.77;;;3.30;89.70;;;;;;4720320;29;20627;-86
2022/11/17 01:04:03;;;;;;;3.50;3.20;;;3.20;89.30;;;;;;4738957;29;20822;-85
2022/11/17 01:39:22;;;;;;;3.33;2.90;;;2.90;88.20;;;;;;4775416;29;20277;-84
2022/11/17 01:59:26;;;;;;;3.07;2.70;;;2.70;88.30;;;;;;4634854;30;20581;-85
2022/11/17 02:30:02;;;;;;;3.77;3.37;;;2.60;90.00;;;;;;4615180;30;20244;-83
2022/11/17 03:25:26;;;;;;;3.23;2.47;;;2.40;90.00;;;;;;4603636;30;20573;-84
2022/11/17 03:51:18;;;;;;;4.70;3.43;;;2.30;90.50;;;;;;4632688;30;20225;-84
2022/11/17 04:36:39;;;;;;;3.80;3.20;;;2.20;91.40;;;;;;4631314;30;20301;-84
2022/11/17 04:57:05;;;;;;;4.03;3.63;;;2.20;91.00;;;;;;4775166;29;20551;-84
2022/11/17 06:25:30;;;;;;;2.30;2.10;;;2.10;90.10;;;;;;4669082;30;20376;-82
2022/11/17 06:40:45;;;;;;;3.23;2.07;;;2.10;89.90;;;;;;4520979;31;21063;-84
2022/11/17 07:24:24;;;;;;;4.33;3.93;;;1.80;86.50;;;;;;4770482;29;20755;-84
2022/11/17 07:54:56;;;;;;;3.60;3.30;;;1.70;86.50;;;;;;4720051;29;20297;-87
2022/11/17 08:25:19;;;;;;;5.47;4.97;;;1.70;86.80;;;;;;4845148;29;21359;-86
2022/11/17 09:24:54;;;;;;;5.30;3.37;;;1.60;87.10;;;;;;4563506;30;20213;-84
2022/11/17 10:00:39;;;;;;;6.47;4.20;;;1.60;87.30;;;;;;4677990;29;20580;-86
2022/11/17 10:31:22;;;;;;;9.17;7.13;;;1.50;87.30;;;;;;4640919;30;20333;-85
2022/11/17 10:56:42;;;;;;;9.93;6.80;;;1.60;85.40;;;;;;4603899;30;20232;-84
2022/11/17 11:27:14;;;;;;;4.70;3.30;;;1.90;84.10;;;;;;4646453;30;20744;-82
2022/11/17 11:52:39;;;;;;;5.60;4.43;;;2.00;83.30;;;;;;4752822;29;20376;-83
2022/11/17 12:23:02;;;;;;;8.60;5.60;;;1.90;81.60;;;;;;4529277;30;20300;-83
2022/11/17 12:58:03;;;;;;;7.73;6.00;;;1.40;81.70;;;;;;4604708;30;20691;-83
2022/11/17 13:23:47;;;;;;;7.00;5.27;;;2.10;79.60;;;;;;4594658;30;20249;-83
2022/11/17 13:48:43;;;;;;;8.70;4.87;;;1.90;79.60;;;;;;4683803;30;20482;-83
2022/11/17 14:09:08;;;;;;;9.10;5.00;;;1.20;81.40;;;;;;4601474;30;20863;-86
2022/11/17 14:29:37;;;;;;;9.57;6.67;;;1.30;81.20;;;;;;4581352;30;20260;-83
2022/11/17 16:19:42;;;;;;;17.70;12.30;;;-0.80;91.00;;;;;;6117687;23;20261;-84
2022/11/17 16:55:15;;;;;;;23.93;14.10;;;-0.30;89.10;;;;;;6209572;22;20162;-84
2022/11/17 16:59:35;;;;;;;20.57;14.07;;;-0.30;88.50;;;;;;6170393;22;20188;-84
2022/11/17 17:30:37;;;;;;;22.47;14.20;;;0.10;86.30;;;;;;6071612;23;20258;-84
2022/11/17 18:01:10;;;;;;;23.47;15.23;;;0.20;87.00;;;;;;5919452;23;20615;-84
2022/11/17 18:41:29;;;;;;;23.43;14.73;;;0.00;85.40;;;;;;5661497;24;20197;-81
2022/11/17 21:03:41;;;;;;;23.67;14.87;;;-0.60;90.70;;;;;;6049161;23;20221;-83
2022/11/17 21:08:01;;;;;;;23.40;15.73;;;-0.70;90.20;;;;;;6009164;23;20228;-83
2022/11/17 21:33:47;;;;;;;24.03;14.10;;;-1.10;90.00;;;;;;5867794;24;20381;-84
2022/11/17 22:14:35;;;;;;;31.67;18.10;;;-2.40;95.00;;;;;;6158093;23;20897;-85
2022/11/17 22:34:55;;;;;;;28.43;18.13;;;-2.50;99.60;;;;;;6152573;23;20162;-84
2022/11/17 22:59:59;;;;;;;36.43;20.93;;;-2.30;99.90;;;;;;5939278;23;20601;-85
2022/11/17 23:30:33;;;;;;;40.37;21.40;;;-1.10;93.20;;;;;;5901855;24;20179;-83
2022/11/17 23:56:02;;;;;;;32.80;20.63;;;-0.40;86.80;;;;;;5779656;24;20649;-85
